createdAt,value
2022-10-22T00:02:27.896Z,1.67
2022-10-22T00:05:13.715Z,0.57
2022-10-22T00:07:59.457Z,0.70
2022-10-22T00:10:45.047Z,0.70
2022-10-22T00:13:30.781Z,1.13
2022-10-22T00:16:16.687Z,1.77
2022-10-22T00:19:02.758Z,0.57
2022-10-22T00:21:48.579Z,1.00
2022-10-22T00:24:34.956Z,0.85
2022-10-22T00:27:20.974Z,0.70
2022-10-22T00:30:07.214Z,1.10
2022-10-22T00:32:52.807Z,1.33
2022-10-22T00:35:38.513Z,0.40
2022-10-22T00:38:24.293Z,0.82
2022-10-22T00:41:10.026Z,0.50
2022-10-22T00:44:01.876Z,0.60
2022-10-22T00:46:47.632Z,0.85
2022-10-22T00:49:33.315Z,1.27
2022-10-22T00:52:19.588Z,0.57
2022-10-22T00:55:06.372Z,0.50
2022-10-22T00:57:54.835Z,0.50
2022-10-22T01:00:40.922Z,0.63
2022-10-22T01:03:26.947Z,0.95
2022-10-22T01:06:17.545Z,2.35
2022-10-22T01:09:13.439Z,0.95
2022-10-22T01:12:05.263Z,0.63
2022-10-22T01:15:23.279Z,0.52
2022-10-22T01:18:26.854Z,0.82
2022-10-22T01:21:20.915Z,1.00
2022-10-22T01:24:32.462Z,2.00
2022-10-22T01:27:30.782Z,0.88
2022-10-22T01:30:17.713Z,0.90
2022-10-22T01:33:06.593Z,2.60
2022-10-22T01:35:52.748Z,0.82
2022-10-22T01:38:40.186Z,1.00
2022-10-22T01:41:28.482Z,0.63
2022-10-22T01:47:57.142Z,0.93
2022-10-22T01:50:49.135Z,0.65
2022-10-22T01:53:49.445Z,0.98
2022-10-22T01:56:48.051Z,0.82
2022-10-22T02:00:13.849Z,1.27
2022-10-22T02:03:04.399Z,1.20
2022-10-22T02:05:53.850Z,1.45
2022-10-22T02:08:39.795Z,1.58
2022-10-22T02:11:26.214Z,1.80
2022-10-22T02:14:13.016Z,2.45
2022-10-22T02:16:59.430Z,1.08
2022-10-22T02:19:54.030Z,0.50
2022-10-22T02:22:40.289Z,1.15
2022-10-22T02:25:29.460Z,1.17
2022-10-22T02:28:26.068Z,1.08
2022-10-22T02:31:19.448Z,0.68
2022-10-22T02:34:10.239Z,1.13
2022-10-22T02:36:57.546Z,0.70
2022-10-22T02:39:43.975Z,0.60
2022-10-22T02:42:30.158Z,1.10
2022-10-22T02:45:19.758Z,0.93
2022-10-22T02:48:06.287Z,0.73
2022-10-22T02:50:52.151Z,1.23
2022-10-22T02:53:38.142Z,1.30
2022-10-22T02:56:23.809Z,1.08
2022-10-22T02:59:09.621Z,0.90
2022-10-22T03:01:55.321Z,0.73
2022-10-22T03:04:41.094Z,0.50
2022-10-22T03:07:28.008Z,0.90
2022-10-22T03:10:13.970Z,0.40
2022-10-22T03:12:59.786Z,0.63
2022-10-22T03:15:45.597Z,0.65
2022-10-22T03:18:31.334Z,0.70
2022-10-22T03:21:19.905Z,0.80
2022-10-22T03:24:10.437Z,0.80
2022-10-22T03:26:56.425Z,0.75
2022-10-22T03:29:43.153Z,0.70
2022-10-22T03:32:29.114Z,0.80
2022-10-22T03:35:15.099Z,0.80
2022-10-22T03:38:01.546Z,0.50
2022-10-22T03:40:47.569Z,1.58
2022-10-22T03:43:35.019Z,1.33
2022-10-22T03:46:21.182Z,1.10
2022-10-22T03:49:07.186Z,0.85
2022-10-22T03:51:52.966Z,1.58
2022-10-22T03:57:30.357Z,0.50
2022-10-22T04:00:16.516Z,0.43
2022-10-22T04:03:02.443Z,0.60
2022-10-22T04:05:48.174Z,0.75
2022-10-22T04:08:34.391Z,0.50
2022-10-22T04:11:20.117Z,0.30
2022-10-22T04:14:06.040Z,0.60
2022-10-22T04:16:52.201Z,0.60
2022-10-22T04:19:38.323Z,0.40
2022-10-22T04:22:24.346Z,0.63
2022-10-22T04:25:10.126Z,0.80
2022-10-22T04:27:56.174Z,0.55
2022-10-22T04:30:41.729Z,0.70
2022-10-22T04:33:27.661Z,0.73
2022-10-22T04:36:16.559Z,0.43
2022-10-22T04:39:03.655Z,0.55
2022-10-22T04:41:49.711Z,1.02
2022-10-22T04:44:35.561Z,1.45
2022-10-22T04:47:21.332Z,2.05
2022-10-22T04:50:07.778Z,1.20
2022-10-22T04:52:53.854Z,1.08
2022-10-22T04:55:39.547Z,0.82
2022-10-22T04:58:25.152Z,1.67
2022-10-22T05:01:12.613Z,1.25
2022-10-22T05:04:01.132Z,0.95
2022-10-22T05:06:47.280Z,1.15
2022-10-22T05:09:33.078Z,1.02
2022-10-22T05:12:18.742Z,0.82
2022-10-22T05:15:04.930Z,0.73
2022-10-22T05:17:50.886Z,1.50
2022-10-22T05:20:40.531Z,0.60
2022-10-22T05:23:26.633Z,0.80
2022-10-22T05:26:13.751Z,0.73
2022-10-22T05:28:59.448Z,1.25
2022-10-22T05:31:45.271Z,0.93
2022-10-22T05:34:33.371Z,0.75
2022-10-22T05:37:19.287Z,0.60
2022-10-22T05:40:19.296Z,0.60
2022-10-22T05:43:05.712Z,0.52
2022-10-22T05:45:51.487Z,1.58
2022-10-22T05:48:37.548Z,0.60
2022-10-22T05:51:24.657Z,0.93
2022-10-22T05:54:17.514Z,0.70
2022-10-22T05:57:03.544Z,1.93
2022-10-22T05:59:49.640Z,1.05
2022-10-22T06:02:35.547Z,0.57
2022-10-22T06:05:21.648Z,0.95
2022-10-22T06:08:12.045Z,1.13
2022-10-22T06:11:00.655Z,1.00
2022-10-22T06:13:46.917Z,0.40
2022-10-22T06:16:33.051Z,0.95
2022-10-22T06:19:22.532Z,0.68
2022-10-22T06:22:08.363Z,0.73
2022-10-22T06:24:54.118Z,0.70
2022-10-22T06:27:39.869Z,0.57
2022-10-22T06:30:25.724Z,0.90
2022-10-22T06:33:11.410Z,1.02
2022-10-22T06:36:07.592Z,1.23
2022-10-22T06:38:55.472Z,0.93
2022-10-22T06:41:41.392Z,1.02
2022-10-22T06:44:27.408Z,0.77
2022-10-22T06:47:13.126Z,0.60
2022-10-22T06:49:58.812Z,0.70
2022-10-22T06:52:44.548Z,0.70
2022-10-22T06:55:30.808Z,0.93
2022-10-22T06:58:16.731Z,0.98
2022-10-22T07:01:08.558Z,1.10
2022-10-22T07:03:54.771Z,1.20
2022-10-22T07:06:40.549Z,0.68
2022-10-22T07:09:26.504Z,0.88
2022-10-22T07:12:13.831Z,1.15
2022-10-22T07:14:59.385Z,0.80
2022-10-22T07:17:45.288Z,0.77
2022-10-22T07:20:31.237Z,1.65
2022-10-22T07:23:17.556Z,1.08
2022-10-22T07:26:07.152Z,2.17
2022-10-22T07:28:53.076Z,1.80
2022-10-22T07:31:38.774Z,1.77
2022-10-22T07:34:24.877Z,2.30
2022-10-22T07:37:10.911Z,2.10
2022-10-22T07:40:00.233Z,2.10
2022-10-22T07:42:48.411Z,2.38
2022-10-22T07:45:34.253Z,3.35
2022-10-22T07:48:19.834Z,2.00
2022-10-22T07:51:06.236Z,3.00
2022-10-22T07:53:51.994Z,2.05
2022-10-22T07:56:38.042Z,1.83
2022-10-22T07:59:23.787Z,1.92
2022-10-22T08:02:10.729Z,1.83
2022-10-22T08:04:57.153Z,2.00
2022-10-22T08:07:43.827Z,2.22
2022-10-22T08:10:29.684Z,2.33
2022-10-22T08:13:16.990Z,2.47
2022-10-22T08:16:02.730Z,2.17
2022-10-22T08:18:48.501Z,2.10
2022-10-22T08:21:34.282Z,1.95
2022-10-22T08:24:20.149Z,2.40
2022-10-22T08:27:05.897Z,2.42
2022-10-22T08:29:52.170Z,3.42
2022-10-22T08:32:38.103Z,3.08
2022-10-22T08:35:24.242Z,2.42
2022-10-22T08:38:09.923Z,2.00
2022-10-22T08:41:03.996Z,2.20
2022-10-22T08:44:11.268Z,2.28
2022-10-22T08:47:06.599Z,2.90
2022-10-22T08:49:53.738Z,2.40
2022-10-22T08:52:41.068Z,1.92
2022-10-22T08:55:27.883Z,1.95
2022-10-22T08:58:25.121Z,1.67
2022-10-22T09:01:14.724Z,2.45
2022-10-22T09:04:11.564Z,2.55
2022-10-22T09:06:59.342Z,2.85
2022-10-22T09:09:47.960Z,2.50
2022-10-22T09:12:33.900Z,5.75
2022-10-22T09:15:20.166Z,3.83
2022-10-22T09:18:28.039Z,3.45
2022-10-22T09:21:53.174Z,2.20
2022-10-22T09:27:31.998Z,3.35
2022-10-22T09:30:22.289Z,3.97
2022-10-22T09:33:08.017Z,2.17
2022-10-22T09:35:55.033Z,2.35
2022-10-22T09:38:45.333Z,3.13
2022-10-22T09:41:31.586Z,3.45
2022-10-22T09:44:19.349Z,2.95
2022-10-22T09:47:07.256Z,2.25
2022-10-22T09:50:17.073Z,2.45
2022-10-22T09:53:13.962Z,4.70
2022-10-22T09:56:10.783Z,2.42
2022-10-22T09:58:58.252Z,2.38
2022-10-22T10:01:44.721Z,2.33
2022-10-22T10:04:34.826Z,2.08
2022-10-22T10:07:31.517Z,2.78
2022-10-22T10:10:21.874Z,2.13
2022-10-22T10:13:22.709Z,2.47
2022-10-22T10:16:13.182Z,2.67
2022-10-22T10:19:24.136Z,2.83
2022-10-22T10:22:34.619Z,1.63
2022-10-22T10:25:26.671Z,2.10
2022-10-22T10:28:21.798Z,3.40
2022-10-22T10:31:21.296Z,2.40
2022-10-22T10:34:19.200Z,2.58
2022-10-22T10:37:25.705Z,3.15
2022-10-22T10:40:28.881Z,1.83
2022-10-22T10:43:41.393Z,1.40
2022-10-22T10:46:43.044Z,1.73
2022-10-22T10:49:34.993Z,1.50
2022-10-22T10:52:37.833Z,2.35
2022-10-22T10:56:17.025Z,1.75
2022-10-22T10:59:40.245Z,2.47
2022-10-22T11:02:52.799Z,1.60
2022-10-22T11:05:46.456Z,1.90
2022-10-22T11:08:45.476Z,3.42
2022-10-22T11:11:59.548Z,1.77
2022-10-22T11:14:59.744Z,1.98
2022-10-22T11:17:46.696Z,1.48
2022-10-22T11:20:45.108Z,1.80
2022-10-22T11:23:46.661Z,2.17
2022-10-22T11:26:46.974Z,3.30
2022-10-22T11:29:39.327Z,2.03
2022-10-22T11:32:27.320Z,1.80
2022-10-22T11:35:22.228Z,2.00
2022-10-22T11:38:15.578Z,1.80
2022-10-22T11:41:05.902Z,2.10
2022-10-22T11:44:01.313Z,1.88
2022-10-22T11:47:15.493Z,1.65
2022-10-22T11:50:19.277Z,1.83
2022-10-22T11:53:13.088Z,2.42
2022-10-22T11:56:25.024Z,1.23
2022-10-22T11:59:38.235Z,2.53
2022-10-22T12:02:46.575Z,1.35
2022-10-22T12:05:35.355Z,2.67
2022-10-22T12:08:24.048Z,1.50
2022-10-22T12:11:28.097Z,2.92
2022-10-22T12:14:20.700Z,1.63
2022-10-22T12:17:13.989Z,1.30
2022-10-22T12:20:14.211Z,1.77
2022-10-22T12:23:00.108Z,1.67
2022-10-22T12:25:46.238Z,3.60
2022-10-22T12:28:50.428Z,1.90
2022-10-22T12:31:38.394Z,1.85
2022-10-22T12:34:25.989Z,3.10
2022-10-22T12:37:14.355Z,1.73
2022-10-22T12:40:00.852Z,2.10
2022-10-22T12:42:51.577Z,2.13
2022-10-22T12:45:41.365Z,1.10
2022-10-22T12:48:36.410Z,1.17
2022-10-22T12:51:22.541Z,1.20
2022-10-22T12:54:13.594Z,1.15
2022-10-22T12:57:00.509Z,1.20
2022-10-22T12:59:49.995Z,1.10
2022-10-22T13:02:36.118Z,0.82
2022-10-22T13:05:27.743Z,0.90
2022-10-22T13:08:26.801Z,1.17
2022-10-22T13:11:12.890Z,1.20
2022-10-22T13:14:06.638Z,0.80
2022-10-22T13:17:10.853Z,0.80
2022-10-22T13:19:57.382Z,0.77
2022-10-22T13:23:00.884Z,0.60
2022-10-22T13:26:13.979Z,1.45
2022-10-22T13:29:01.289Z,1.65
2022-10-22T13:31:52.481Z,0.75
2022-10-22T13:34:38.445Z,0.80
2022-10-22T13:37:25.017Z,0.70
2022-10-22T13:40:15.198Z,0.85
2022-10-22T13:43:00.936Z,0.82
2022-10-22T13:45:54.891Z,0.70
2022-10-22T13:48:41.297Z,1.15
2022-10-22T13:51:37.500Z,1.13
2022-10-22T13:54:24.590Z,0.73
2022-10-22T13:57:11.592Z,1.13
2022-10-22T13:59:57.396Z,1.08
2022-10-22T14:02:44.694Z,0.77
2022-10-22T14:05:32.555Z,1.20
2022-10-22T14:08:22.804Z,1.13
2022-10-22T14:11:11.403Z,2.63
2022-10-22T14:13:57.536Z,1.50
2022-10-22T14:16:43.641Z,2.30
2022-10-22T14:19:30.214Z,0.68
2022-10-22T14:22:17.775Z,0.75
2022-10-22T14:25:03.626Z,1.00
2022-10-22T14:27:50.116Z,1.17
2022-10-22T14:30:36.831Z,0.90
2022-10-22T14:33:28.930Z,0.68
2022-10-22T14:36:19.100Z,1.10
2022-10-22T14:39:05.090Z,1.00
2022-10-22T14:41:50.648Z,0.70
2022-10-22T14:44:36.511Z,0.60
2022-10-22T14:47:22.626Z,0.50
2022-10-22T14:50:08.736Z,0.68
2022-10-22T14:52:57.270Z,0.75
2022-10-22T14:55:44.474Z,0.50
2022-10-22T14:58:30.506Z,0.65
2022-10-22T15:01:17.036Z,0.50
2022-10-22T15:04:03.065Z,0.75
2022-10-22T15:06:49.285Z,1.00
2022-10-22T15:09:35.720Z,0.80
2022-10-22T15:12:21.809Z,1.10
2022-10-22T15:15:08.173Z,1.20
2022-10-22T15:17:54.076Z,1.17
2022-10-22T15:20:40.126Z,1.63
2022-10-22T15:23:26.306Z,0.80
2022-10-22T15:26:13.126Z,2.03
2022-10-22T15:28:59.312Z,4.32
2022-10-22T15:31:51.629Z,4.93
2022-10-22T15:34:38.847Z,3.75
2022-10-22T15:37:24.816Z,4.93
2022-10-22T15:40:10.806Z,3.08
2022-10-22T15:42:56.571Z,2.45
2022-10-22T15:45:42.237Z,2.15
2022-10-22T15:48:27.873Z,2.63
2022-10-22T15:51:16.074Z,2.35
2022-10-22T15:54:03.540Z,1.40
2022-10-22T15:56:52.365Z,1.70
2022-10-22T15:59:38.493Z,1.20
2022-10-22T16:02:24.549Z,1.50
2022-10-22T16:05:10.401Z,1.13
2022-10-22T16:07:57.190Z,1.30
2022-10-22T16:10:48.531Z,1.17
2022-10-22T16:13:36.929Z,0.80
2022-10-22T16:16:23.850Z,1.10
2022-10-22T16:19:11.183Z,1.10
2022-10-22T16:21:57.906Z,0.93
2022-10-22T16:24:43.721Z,0.73
2022-10-22T16:27:29.751Z,0.80
2022-10-22T16:30:15.685Z,1.02
2022-10-22T16:33:03.456Z,1.17
2022-10-22T16:35:49.804Z,1.27
2022-10-22T16:38:35.457Z,0.70
2022-10-22T16:41:23.240Z,0.90
2022-10-22T16:44:10.197Z,0.88
2022-10-22T16:46:56.247Z,0.60
2022-10-22T16:49:41.904Z,0.77
2022-10-22T16:52:27.600Z,0.70
2022-10-22T16:55:13.211Z,0.65
2022-10-22T16:57:59.255Z,0.70
2022-10-22T17:00:45.110Z,0.80
2022-10-22T17:03:30.836Z,0.85
2022-10-22T17:06:16.724Z,0.73
2022-10-22T17:09:02.817Z,0.57
2022-10-22T17:11:48.541Z,0.77
2022-10-22T17:14:34.553Z,0.80
2022-10-22T17:17:20.466Z,0.75
2022-10-22T17:20:06.807Z,0.80
2022-10-22T17:22:52.917Z,0.60
2022-10-22T17:25:43.910Z,0.80
2022-10-22T17:28:30.288Z,1.05
2022-10-22T17:31:22.271Z,1.70
2022-10-22T17:34:11.193Z,1.27
2022-10-22T17:37:00.187Z,1.42
2022-10-22T17:39:46.596Z,1.15
2022-10-22T17:42:32.527Z,1.05
2022-10-22T17:45:18.583Z,1.38
2022-10-22T17:48:04.435Z,1.10
2022-10-22T17:50:51.011Z,1.15
2022-10-22T17:53:43.011Z,0.95
2022-10-22T17:56:32.499Z,1.10
2022-10-22T17:59:19.113Z,1.30
2022-10-22T18:02:04.985Z,0.95
2022-10-22T18:04:52.442Z,0.60
2022-10-22T18:07:38.639Z,0.75
2022-10-22T18:10:24.656Z,1.10
2022-10-22T18:13:10.463Z,1.80
2022-10-22T18:15:56.679Z,1.27
2022-10-22T18:18:46.417Z,1.88
2022-10-22T18:21:32.227Z,1.75
2022-10-22T18:24:18.615Z,2.55
2022-10-22T18:27:05.132Z,1.83
2022-10-22T18:29:51.197Z,2.30
2022-10-22T18:32:37.360Z,1.80
2022-10-22T18:35:24.469Z,1.27
2022-10-22T18:38:11.702Z,0.95
2022-10-22T18:40:57.686Z,1.02
2022-10-22T18:43:43.763Z,1.05
2022-10-22T18:46:31.765Z,1.45
2022-10-22T18:49:19.355Z,0.70
2022-10-22T18:52:05.328Z,1.10
2022-10-22T18:54:51.401Z,1.00
2022-10-22T18:57:37.502Z,0.60
2022-10-22T19:00:23.219Z,0.75
2022-10-22T19:03:09.309Z,0.65
2022-10-22T19:05:59.977Z,0.77
2022-10-22T19:08:50.669Z,1.02
2022-10-22T19:11:38.133Z,0.90
2022-10-22T19:14:24.588Z,0.82
2022-10-22T19:17:11.026Z,1.38
2022-10-22T19:20:08.322Z,0.80
2022-10-22T19:22:55.989Z,1.08
2022-10-22T19:25:42.773Z,0.70
2022-10-22T19:28:28.881Z,1.10
2022-10-22T19:31:18.481Z,1.05
2022-10-22T19:34:04.531Z,0.70
2022-10-22T19:36:51.911Z,1.35
2022-10-22T19:39:37.966Z,1.17
2022-10-22T19:42:23.776Z,1.27
2022-10-22T19:45:10.119Z,1.38
2022-10-22T19:47:56.139Z,0.70
2022-10-22T19:50:42.278Z,1.60
2022-10-22T19:53:28.205Z,1.63
2022-10-22T19:56:18.797Z,1.13
2022-10-22T19:59:05.880Z,1.30
2022-10-22T20:01:51.928Z,1.10
2022-10-22T20:04:38.034Z,1.50
2022-10-22T20:07:24.019Z,1.27
2022-10-22T20:10:10.114Z,1.42
2022-10-22T20:12:56.154Z,1.50
2022-10-22T20:15:41.984Z,1.77
2022-10-22T20:18:28.063Z,1.42
2022-10-22T20:21:15.134Z,1.20
2022-10-22T20:24:01.490Z,1.02
2022-10-22T20:26:48.684Z,1.13
2022-10-22T20:29:34.918Z,1.58
2022-10-22T20:32:22.152Z,1.75
2022-10-22T20:35:08.393Z,1.23
2022-10-22T20:37:54.290Z,1.08
2022-10-22T20:40:39.954Z,1.45
2022-10-22T20:43:25.846Z,1.40
2022-10-22T20:46:19.051Z,1.23
2022-10-22T20:49:08.069Z,0.82
2022-10-22T20:51:53.786Z,0.95
2022-10-22T20:54:42.610Z,1.08
2022-10-22T20:57:28.506Z,1.73
2022-10-22T21:00:14.476Z,1.52
2022-10-22T21:03:00.440Z,1.35
2022-10-22T21:05:46.415Z,1.33
2022-10-22T21:08:32.602Z,1.33
2022-10-22T21:11:19.687Z,1.83
2022-10-22T21:14:09.233Z,2.33
2022-10-22T21:16:54.985Z,1.30
2022-10-22T21:19:40.959Z,1.40
2022-10-22T21:22:26.736Z,1.33
2022-10-22T21:25:12.697Z,1.40
2022-10-22T21:27:58.818Z,1.73
2022-10-22T21:30:45.796Z,1.10
2022-10-22T21:33:32.175Z,1.35
2022-10-22T21:36:22.484Z,1.20
2022-10-22T21:39:08.685Z,1.05
2022-10-22T21:41:54.609Z,2.13
2022-10-22T21:44:40.651Z,1.90
2022-10-22T21:47:26.843Z,1.58
2022-10-22T21:50:12.511Z,1.65
2022-10-22T21:52:58.443Z,1.05
2022-10-22T21:55:44.297Z,0.90
2022-10-22T21:58:30.282Z,0.70
2022-10-22T22:01:17.171Z,1.48
2022-10-22T22:04:03.431Z,0.77
2022-10-22T22:06:49.391Z,1.40
2022-10-22T22:09:35.747Z,3.30
2022-10-22T22:12:21.830Z,3.22
2022-10-22T22:15:08.753Z,2.95
2022-10-22T22:17:54.716Z,1.50
2022-10-22T22:20:40.538Z,1.30
2022-10-22T22:23:26.687Z,1.52
2022-10-22T22:26:13.457Z,1.38
2022-10-22T22:29:00.221Z,1.10
2022-10-22T22:31:46.162Z,1.02
2022-10-22T22:34:36.686Z,1.77
2022-10-22T22:37:24.694Z,1.05
2022-10-22T22:40:11.003Z,1.15
2022-10-22T22:42:57.073Z,1.45
2022-10-22T22:45:42.805Z,1.83
2022-10-22T22:48:28.999Z,1.83
2022-10-22T22:51:14.786Z,2.17
2022-10-22T22:54:01.178Z,2.00
2022-10-22T22:56:49.910Z,1.90
2022-10-22T22:59:35.603Z,2.20
2022-10-22T23:02:21.308Z,1.23
2022-10-22T23:05:07.917Z,1.48
2022-10-22T23:07:53.834Z,1.00
2022-10-22T23:10:39.461Z,1.20
2022-10-22T23:13:25.093Z,1.30
2022-10-22T23:16:15.970Z,1.42
2022-10-22T23:19:02.120Z,0.85
2022-10-22T23:21:50.945Z,0.73
2022-10-22T23:24:40.471Z,0.85
2022-10-22T23:27:26.393Z,1.17
2022-10-22T23:31:01.029Z,0.60
2022-10-22T23:33:48.807Z,1.23
2022-10-22T23:36:36.806Z,1.17
2022-10-22T23:39:28.278Z,1.33
2022-10-22T23:42:13.930Z,0.75
2022-10-22T23:44:59.704Z,1.65
2022-10-22T23:47:45.378Z,3.25
2022-10-22T23:50:31.062Z,1.50
2022-10-22T23:53:16.930Z,1.63
2022-10-22T23:56:08.143Z,2.28
2022-10-22T23:58:54.854Z,0.90
